sensor_id;sensor_type;location;lat;lon;timestamp;P1;durP1;ratioP1;P2;durP2;ratioP2
36377;SDS011;22402;42.746;23.606;2022-12-07T03:53:44;25.77;;;14.93;;
36377;SDS011;22402;42.746;23.606;2022-12-07T03:56:11;24.63;;;12.73;;
36377;SDS011;22402;42.746;23.606;2022-12-07T03:58:37;22.13;;;12.83;;
36377;SDS011;22402;42.746;23.606;2022-12-07T04:01:03;18.93;;;11.80;;
36377;SDS011;22402;42.746;23.606;2022-12-07T04:03:31;23.40;;;12.40;;
36377;SDS011;22402;42.746;23.606;2022-12-07T04:05:56;29.50;;;13.03;;
36377;SDS011;22402;42.746;23.606;2022-12-07T04:08:22;20.20;;;13.73;;
36377;SDS011;22402;42.746;23.606;2022-12-07T04:10:47;26.50;;;14.10;;
36377;SDS011;22402;42.746;23.606;2022-12-07T04:13:12;23.52;;;14.23;;
36377;SDS011;22402;42.746;23.606;2022-12-07T04:15:37;24.60;;;11.57;;
36377;SDS011;22402;42.746;23.606;2022-12-07T04:18:03;24.83;;;11.80;;
36377;SDS011;22402;42.746;23.606;2022-12-07T04:20:28;33.17;;;12.27;;
36377;SDS011;22402;42.746;23.606;2022-12-07T04:22:53;22.33;;;12.17;;
36377;SDS011;22402;42.746;23.606;2022-12-07T04:25:18;21.23;;;12.83;;
36377;SDS011;22402;42.746;23.606;2022-12-07T04:27:43;31.67;;;15.45;;
36377;SDS011;22402;42.746;23.606;2022-12-07T04:30:08;31.48;;;13.60;;
36377;SDS011;22402;42.746;23.606;2022-12-07T04:32:34;24.33;;;12.53;;
36377;SDS011;22402;42.746;23.606;2022-12-07T04:34:59;17.83;;;10.47;;
36377;SDS011;22402;42.746;23.606;2022-12-07T04:37:24;24.03;;;12.53;;
36377;SDS011;22402;42.746;23.606;2022-12-07T04:39:49;20.03;;;11.47;;
36377;SDS011;22402;42.746;23.606;2022-12-07T04:42:15;24.80;;;12.57;;
36377;SDS011;22402;42.746;23.606;2022-12-07T04:44:40;24.17;;;13.33;;
36377;SDS011;22402;42.746;23.606;2022-12-07T04:47:05;19.50;;;11.60;;
36377;SDS011;22402;42.746;23.606;2022-12-07T04:49:30;24.15;;;12.18;;
36377;SDS011;22402;42.746;23.606;2022-12-07T04:51:55;22.83;;;11.20;;
36377;SDS011;22402;42.746;23.606;2022-12-07T04:54:21;24.97;;;10.63;;
36377;SDS011;22402;42.746;23.606;2022-12-07T04:56:46;20.60;;;11.47;;
36377;SDS011;22402;42.746;23.606;2022-12-07T04:59:12;22.40;;;12.40;;
36377;SDS011;22402;42.746;23.606;2022-12-07T05:01:37;23.07;;;10.90;;
36377;SDS011;22402;42.746;23.606;2022-12-07T05:04:02;17.47;;;11.10;;
36377;SDS011;22402;42.746;23.606;2022-12-07T05:06:27;26.20;;;12.83;;
36377;SDS011;22402;42.746;23.606;2022-12-07T05:08:53;22.40;;;12.90;;
36377;SDS011;22402;42.746;23.606;2022-12-07T05:11:18;30.87;;;11.37;;
36377;SDS011;22402;42.746;23.606;2022-12-07T05:13:43;23.95;;;11.25;;
36377;SDS011;22402;42.746;23.606;2022-12-07T05:16:08;22.77;;;11.10;;
36377;SDS011;22402;42.746;23.606;2022-12-07T05:18:36;24.45;;;12.20;;
36377;SDS011;22402;42.746;23.606;2022-12-07T05:21:01;22.10;;;10.23;;
36377;SDS011;22402;42.746;23.606;2022-12-07T05:23:27;26.87;;;12.10;;
36377;SDS011;22402;42.746;23.606;2022-12-07T05:25:52;23.23;;;11.67;;
36377;SDS011;22402;42.746;23.606;2022-12-07T05:28:17;22.05;;;10.80;;
36377;SDS011;22402;42.746;23.606;2022-12-07T05:30:42;20.20;;;11.07;;
36377;SDS011;22402;42.746;23.606;2022-12-07T05:33:07;28.67;;;14.80;;
36377;SDS011;22402;42.746;23.606;2022-12-07T05:35:33;23.63;;;12.47;;
36377;SDS011;22402;42.746;23.606;2022-12-07T05:37:58;23.23;;;12.23;;
36377;SDS011;22402;42.746;23.606;2022-12-07T05:40:23;25.00;;;12.47;;
36377;SDS011;22402;42.746;23.606;2022-12-07T05:42:48;19.80;;;11.20;;
36377;SDS011;22402;42.746;23.606;2022-12-07T05:45:14;29.20;;;13.23;;
36377;SDS011;22402;42.746;23.606;2022-12-07T05:47:39;28.37;;;13.43;;
36377;SDS011;22402;42.746;23.606;2022-12-07T05:50:04;36.90;;;20.47;;
36377;SDS011;22402;42.746;23.606;2022-12-07T05:52:30;29.63;;;15.40;;
36377;SDS011;22402;42.746;23.606;2022-12-07T05:54:55;29.73;;;13.77;;
36377;SDS011;22402;42.746;23.606;2022-12-07T05:57:20;30.90;;;14.17;;
36377;SDS011;22402;42.746;23.606;2022-12-07T05:59:45;33.80;;;13.87;;
36377;SDS011;22402;42.746;23.606;2022-12-07T06:02:12;33.93;;;14.00;;
36377;SDS011;22402;42.746;23.606;2022-12-07T06:04:41;27.67;;;14.27;;
36377;SDS011;22402;42.746;23.606;2022-12-07T06:07:08;19.83;;;11.17;;
36377;SDS011;22402;42.746;23.606;2022-12-07T06:09:33;27.00;;;12.50;;
36377;SDS011;22402;42.746;23.606;2022-12-07T06:11:58;35.17;;;13.73;;
36377;SDS011;22402;42.746;23.606;2022-12-07T06:14:24;17.07;;;10.37;;
36377;SDS011;22402;42.746;23.606;2022-12-07T06:16:49;23.53;;;12.20;;
36377;SDS011;22402;42.746;23.606;2022-12-07T06:19:14;22.43;;;12.17;;
36377;SDS011;22402;42.746;23.606;2022-12-07T06:21:40;24.60;;;10.77;;
36377;SDS011;22402;42.746;23.606;2022-12-07T06:24:05;29.67;;;12.13;;
36377;SDS011;22402;42.746;23.606;2022-12-07T06:26:30;22.10;;;13.40;;
36377;SDS011;22402;42.746;23.606;2022-12-07T06:28:56;23.60;;;13.00;;
36377;SDS011;22402;42.746;23.606;2022-12-07T06:31:21;21.30;;;11.67;;
36377;SDS011;22402;42.746;23.606;2022-12-07T06:33:46;40.20;;;17.30;;
36377;SDS011;22402;42.746;23.606;2022-12-07T06:36:12;29.33;;;14.10;;
36377;SDS011;22402;42.746;23.606;2022-12-07T06:38:37;21.60;;;11.60;;
36377;SDS011;22402;42.746;23.606;2022-12-07T06:41:02;29.50;;;12.90;;
36377;SDS011;22402;42.746;23.606;2022-12-07T06:43:28;27.37;;;13.73;;
36377;SDS011;22402;42.746;23.606;2022-12-07T06:45:53;22.97;;;12.83;;
36377;SDS011;22402;42.746;23.606;2022-12-07T06:48:18;21.92;;;11.57;;
36377;SDS011;22402;42.746;23.606;2022-12-07T06:50:47;26.73;;;10.90;;
36377;SDS011;22402;42.746;23.606;2022-12-07T06:53:12;20.67;;;12.23;;
36377;SDS011;22402;42.746;23.606;2022-12-07T06:55:37;26.63;;;12.30;;
36377;SDS011;22402;42.746;23.606;2022-12-07T06:58:02;22.93;;;12.97;;
36377;SDS011;22402;42.746;23.606;2022-12-07T07:00:28;25.23;;;13.50;;
36377;SDS011;22402;42.746;23.606;2022-12-07T07:02:53;39.97;;;20.97;;
36377;SDS011;22402;42.746;23.606;2022-12-07T07:05:18;64.17;;;35.60;;
36377;SDS011;22402;42.746;23.606;2022-12-07T07:07:44;49.67;;;23.40;;
36377;SDS011;22402;42.746;23.606;2022-12-07T07:10:09;32.17;;;19.40;;
36377;SDS011;22402;42.746;23.606;2022-12-07T07:12:34;29.37;;;15.07;;
36377;SDS011;22402;42.746;23.606;2022-12-07T07:14:59;20.33;;;12.57;;
36377;SDS011;22402;42.746;23.606;2022-12-07T07:17:25;20.67;;;12.93;;
36377;SDS011;22402;42.746;23.606;2022-12-07T07:19:50;27.00;;;13.07;;
36377;SDS011;22402;42.746;23.606;2022-12-07T07:22:15;30.00;;;17.50;;
36377;SDS011;22402;42.746;23.606;2022-12-07T07:24:40;28.83;;;17.03;;
36377;SDS011;22402;42.746;23.606;2022-12-07T07:27:05;31.37;;;16.87;;
36377;SDS011;22402;42.746;23.606;2022-12-07T07:29:30;36.47;;;20.60;;
36377;SDS011;22402;42.746;23.606;2022-12-07T07:31:56;26.00;;;15.60;;
36377;SDS011;22402;42.746;23.606;2022-12-07T07:34:21;25.47;;;12.90;;
36377;SDS011;22402;42.746;23.606;2022-12-07T07:36:46;31.27;;;15.73;;
36377;SDS011;22402;42.746;23.606;2022-12-07T07:39:12;25.33;;;13.73;;
36377;SDS011;22402;42.746;23.606;2022-12-07T07:41:37;43.90;;;14.57;;
36377;SDS011;22402;42.746;23.606;2022-12-07T07:44:02;30.03;;;15.17;;
36377;SDS011;22402;42.746;23.606;2022-12-07T07:46:27;26.20;;;14.97;;
36377;SDS011;22402;42.746;23.606;2022-12-07T07:48:53;23.73;;;15.27;;
36377;SDS011;22402;42.746;23.606;2022-12-07T07:51:18;28.57;;;15.97;;
36377;SDS011;22402;42.746;23.606;2022-12-07T07:53:43;46.47;;;24.37;;
36377;SDS011;22402;42.746;23.606;2022-12-07T07:56:08;64.27;;;27.60;;
36377;SDS011;22402;42.746;23.606;2022-12-07T07:58:33;50.80;;;26.73;;
36377;SDS011;22402;42.746;23.606;2022-12-07T08:01:06;32.40;;;18.77;;
36377;SDS011;22402;42.746;23.606;2022-12-07T08:03:31;30.43;;;16.60;;
36377;SDS011;22402;42.746;23.606;2022-12-07T08:05:56;26.53;;;14.90;;
36377;SDS011;22402;42.746;23.606;2022-12-07T08:08:22;21.97;;;13.73;;
36377;SDS011;22402;42.746;23.606;2022-12-07T08:10:47;27.25;;;13.25;;
36377;SDS011;22402;42.746;23.606;2022-12-07T08:13:13;17.55;;;11.02;;
36377;SDS011;22402;42.746;23.606;2022-12-07T08:15:40;21.00;;;11.23;;
36377;SDS011;22402;42.746;23.606;2022-12-07T08:18:06;25.93;;;11.43;;
36377;SDS011;22402;42.746;23.606;2022-12-07T08:20:32;25.13;;;12.17;;
36377;SDS011;22402;42.746;23.606;2022-12-07T08:22:57;26.70;;;13.30;;
36377;SDS011;22402;42.746;23.606;2022-12-07T08:25:22;32.63;;;15.73;;
36377;SDS011;22402;42.746;23.606;2022-12-07T08:27:48;30.17;;;15.00;;
36377;SDS011;22402;42.746;23.606;2022-12-07T08:30:13;24.60;;;13.17;;
36377;SDS011;22402;42.746;23.606;2022-12-07T08:32:39;23.93;;;13.53;;
36377;SDS011;22402;42.746;23.606;2022-12-07T08:35:04;49.43;;;21.90;;
36377;SDS011;22402;42.746;23.606;2022-12-07T08:37:30;64.27;;;29.10;;
36377;SDS011;22402;42.746;23.606;2022-12-07T08:39:56;45.30;;;24.33;;
36377;SDS011;22402;42.746;23.606;2022-12-07T08:42:21;36.60;;;17.25;;
36377;SDS011;22402;42.746;23.606;2022-12-07T08:44:46;40.80;;;19.10;;
36377;SDS011;22402;42.746;23.606;2022-12-07T08:47:11;37.00;;;19.60;;
36377;SDS011;22402;42.746;23.606;2022-12-07T08:49:38;43.93;;;20.70;;
36377;SDS011;22402;42.746;23.606;2022-12-07T08:52:04;49.97;;;23.67;;
36377;SDS011;22402;42.746;23.606;2022-12-07T08:54:30;45.23;;;21.77;;
36377;SDS011;22402;42.746;23.606;2022-12-07T08:56:55;49.43;;;21.70;;
36377;SDS011;22402;42.746;23.606;2022-12-07T08:59:20;50.23;;;21.90;;
36377;SDS011;22402;42.746;23.606;2022-12-07T09:01:46;40.77;;;21.77;;
36377;SDS011;22402;42.746;23.606;2022-12-07T09:04:11;41.57;;;20.50;;
